sensor_id;sensor_type;location;lat;lon;timestamp;P1;durP1;ratioP1;P2;durP2;ratioP2
63050;SDS011;49136;47.416;19.402;2022-08-24T00:02:22;9.38;;;5.53;;
63050;SDS011;49136;47.416;19.402;2022-08-24T00:04:48;9.82;;;4.20;;
63050;SDS011;49136;47.416;19.402;2022-08-24T00:07:14;10.50;;;5.18;;
63050;SDS011;49136;47.416;19.402;2022-08-24T00:09:40;9.50;;;4.93;;
63050;SDS011;49136;47.416;19.402;2022-08-24T00:12:06;9.02;;;5.50;;
63050;SDS011;49136;47.416;19.402;2022-08-24T00:14:32;11.85;;;5.43;;
63050;SDS011;49136;47.416;19.402;2022-08-24T00:16:58;10.38;;;5.03;;
63050;SDS011;49136;47.416;19.402;2022-08-24T00:19:24;8.43;;;4.95;;
63050;SDS011;49136;47.416;19.402;2022-08-24T00:21:50;11.27;;;6.10;;
63050;SDS011;49136;47.416;19.402;2022-08-24T00:24:16;12.40;;;6.15;;
63050;SDS011;49136;47.416;19.402;2022-08-24T00:26:42;10.15;;;5.47;;
63050;SDS011;49136;47.416;19.402;2022-08-24T00:29:07;11.70;;;5.18;;
63050;SDS011;49136;47.416;19.402;2022-08-24T00:31:33;10.90;;;5.63;;
63050;SDS011;49136;47.416;19.402;2022-08-24T00:33:59;16.58;;;5.50;;
63050;SDS011;49136;47.416;19.402;2022-08-24T00:36:24;10.93;;;5.97;;
63050;SDS011;49136;47.416;19.402;2022-08-24T00:38:50;7.40;;;4.45;;
63050;SDS011;49136;47.416;19.402;2022-08-24T00:41:17;9.55;;;5.65;;
63050;SDS011;49136;47.416;19.402;2022-08-24T00:43:56;11.00;;;5.72;;
63050;SDS011;49136;47.416;19.402;2022-08-24T00:49:04;12.43;;;5.82;;
63050;SDS011;49136;47.416;19.402;2022-08-24T00:51:42;8.05;;;5.03;;
63050;SDS011;49136;47.416;19.402;2022-08-24T00:54:14;9.73;;;4.85;;
63050;SDS011;49136;47.416;19.402;2022-08-24T00:56:42;8.68;;;5.38;;
63050;SDS011;49136;47.416;19.402;2022-08-24T00:59:22;9.13;;;4.68;;
63050;SDS011;49136;47.416;19.402;2022-08-24T01:02:02;11.45;;;5.72;;
63050;SDS011;49136;47.416;19.402;2022-08-24T01:04:32;10.95;;;5.70;;
63050;SDS011;49136;47.416;19.402;2022-08-24T01:07:02;9.02;;;5.00;;
63050;SDS011;49136;47.416;19.402;2022-08-24T01:09:28;12.23;;;6.40;;
63050;SDS011;49136;47.416;19.402;2022-08-24T01:11:55;10.82;;;6.05;;
63050;SDS011;49136;47.416;19.402;2022-08-24T01:14:21;13.52;;;6.03;;
63050;SDS011;49136;47.416;19.402;2022-08-24T01:16:48;13.57;;;6.28;;
63050;SDS011;49136;47.416;19.402;2022-08-24T01:22:13;9.95;;;6.25;;
63050;SDS011;49136;47.416;19.402;2022-08-24T01:24:59;11.25;;;5.95;;
63050;SDS011;49136;47.416;19.402;2022-08-24T01:27:25;14.45;;;5.80;;
63050;SDS011;49136;47.416;19.402;2022-08-24T01:29:50;10.90;;;5.85;;
63050;SDS011;49136;47.416;19.402;2022-08-24T01:32:18;11.25;;;6.07;;
63050;SDS011;49136;47.416;19.402;2022-08-24T01:34:46;12.43;;;6.13;;
63050;SDS011;49136;47.416;19.402;2022-08-24T01:37:12;10.60;;;5.85;;
63050;SDS011;49136;47.416;19.402;2022-08-24T01:39:43;11.02;;;5.25;;
63050;SDS011;49136;47.416;19.402;2022-08-24T01:42:11;15.27;;;5.65;;
63050;SDS011;49136;47.416;19.402;2022-08-24T01:44:38;11.52;;;6.32;;
63050;SDS011;49136;47.416;19.402;2022-08-24T01:47:06;9.07;;;5.53;;
63050;SDS011;49136;47.416;19.402;2022-08-24T01:49:35;11.52;;;5.57;;
63050;SDS011;49136;47.416;19.402;2022-08-24T01:54:32;9.88;;;5.25;;
63050;SDS011;49136;47.416;19.402;2022-08-24T01:56:58;13.15;;;5.55;;
63050;SDS011;49136;47.416;19.402;2022-08-24T01:59:24;10.15;;;6.00;;
63050;SDS011;49136;47.416;19.402;2022-08-24T02:02:12;8.27;;;5.18;;
63050;SDS011;49136;47.416;19.402;2022-08-24T02:04:38;11.98;;;6.22;;
63050;SDS011;49136;47.416;19.402;2022-08-24T02:07:04;13.00;;;5.78;;
63050;SDS011;49136;47.416;19.402;2022-08-24T02:09:30;12.68;;;6.03;;
63050;SDS011;49136;47.416;19.402;2022-08-24T02:11:55;10.98;;;6.43;;
63050;SDS011;49136;47.416;19.402;2022-08-24T02:14:21;10.05;;;5.70;;
63050;SDS011;49136;47.416;19.402;2022-08-24T02:16:46;9.55;;;5.72;;
63050;SDS011;49136;47.416;19.402;2022-08-24T02:19:11;10.15;;;5.75;;
63050;SDS011;49136;47.416;19.402;2022-08-24T02:21:37;11.52;;;6.32;;
63050;SDS011;49136;47.416;19.402;2022-08-24T02:24:04;11.68;;;5.32;;
63050;SDS011;49136;47.416;19.402;2022-08-24T02:26:29;12.13;;;6.75;;
63050;SDS011;49136;47.416;19.402;2022-08-24T02:28:55;11.18;;;6.10;;
63050;SDS011;49136;47.416;19.402;2022-08-24T02:31:20;10.30;;;5.85;;
63050;SDS011;49136;47.416;19.402;2022-08-24T02:33:46;11.45;;;6.05;;
63050;SDS011;49136;47.416;19.402;2022-08-24T02:36:12;8.40;;;5.60;;
63050;SDS011;49136;47.416;19.402;2022-08-24T02:38:38;13.93;;;5.90;;
63050;SDS011;49136;47.416;19.402;2022-08-24T02:41:04;12.48;;;6.13;;
63050;SDS011;49136;47.416;19.402;2022-08-24T02:43:30;12.65;;;6.70;;
63050;SDS011;49136;47.416;19.402;2022-08-24T02:45:56;13.48;;;6.85;;
63050;SDS011;49136;47.416;19.402;2022-08-24T02:48:21;12.63;;;6.70;;
63050;SDS011;49136;47.416;19.402;2022-08-24T02:50:48;12.02;;;6.93;;
63050;SDS011;49136;47.416;19.402;2022-08-24T02:53:15;9.48;;;5.50;;
63050;SDS011;49136;47.416;19.402;2022-08-24T02:55:43;11.95;;;6.20;;
63050;SDS011;49136;47.416;19.402;2022-08-24T02:58:10;11.45;;;6.25;;
63050;SDS011;49136;47.416;19.402;2022-08-24T03:00:36;14.70;;;7.00;;
63050;SDS011;49136;47.416;19.402;2022-08-24T03:03:03;13.85;;;6.80;;
63050;SDS011;49136;47.416;19.402;2022-08-24T03:05:30;11.77;;;7.13;;
63050;SDS011;49136;47.416;19.402;2022-08-24T03:07:56;13.77;;;6.95;;
63050;SDS011;49136;47.416;19.402;2022-08-24T03:10:21;14.60;;;6.68;;
63050;SDS011;49136;47.416;19.402;2022-08-24T03:12:47;9.45;;;5.85;;
63050;SDS011;49136;47.416;19.402;2022-08-24T03:15:14;11.82;;;6.95;;
63050;SDS011;49136;47.416;19.402;2022-08-24T03:17:40;12.10;;;6.28;;
63050;SDS011;49136;47.416;19.402;2022-08-24T03:20:08;12.13;;;6.28;;
63050;SDS011;49136;47.416;19.402;2022-08-24T03:22:38;10.25;;;6.28;;
63050;SDS011;49136;47.416;19.402;2022-08-24T03:25:04;10.70;;;5.82;;
63050;SDS011;49136;47.416;19.402;2022-08-24T03:27:30;15.07;;;6.35;;
63050;SDS011;49136;47.416;19.402;2022-08-24T03:29:55;16.13;;;6.53;;
63050;SDS011;49136;47.416;19.402;2022-08-24T03:32:21;9.93;;;5.20;;
63050;SDS011;49136;47.416;19.402;2022-08-24T03:34:46;11.38;;;6.18;;
63050;SDS011;49136;47.416;19.402;2022-08-24T03:37:11;11.70;;;5.70;;
63050;SDS011;49136;47.416;19.402;2022-08-24T03:39:37;12.77;;;6.78;;
63050;SDS011;49136;47.416;19.402;2022-08-24T03:42:03;11.77;;;7.00;;
63050;SDS011;49136;47.416;19.402;2022-08-24T03:44:29;13.50;;;5.80;;
63050;SDS011;49136;47.416;19.402;2022-08-24T03:46:54;11.80;;;6.38;;
63050;SDS011;49136;47.416;19.402;2022-08-24T03:49:19;13.13;;;6.97;;
63050;SDS011;49136;47.416;19.402;2022-08-24T03:51:45;11.20;;;5.38;;
63050;SDS011;49136;47.416;19.402;2022-08-24T03:54:11;11.20;;;6.03;;
63050;SDS011;49136;47.416;19.402;2022-08-24T03:56:38;12.63;;;5.53;;
63050;SDS011;49136;47.416;19.402;2022-08-24T03:59:04;12.50;;;6.55;;
63050;SDS011;49136;47.416;19.402;2022-08-24T04:01:31;11.95;;;6.47;;
63050;SDS011;49136;47.416;19.402;2022-08-24T04:03:57;13.10;;;6.10;;
63050;SDS011;49136;47.416;19.402;2022-08-24T04:06:23;15.60;;;7.20;;
63050;SDS011;49136;47.416;19.402;2022-08-24T04:08:49;12.50;;;6.57;;
63050;SDS011;49136;47.416;19.402;2022-08-24T04:11:16;11.48;;;6.43;;
63050;SDS011;49136;47.416;19.402;2022-08-24T04:13:47;13.45;;;7.32;;
63050;SDS011;49136;47.416;19.402;2022-08-24T04:16:14;11.82;;;5.50;;
63050;SDS011;49136;47.416;19.402;2022-08-24T04:18:41;10.25;;;5.90;;
63050;SDS011;49136;47.416;19.402;2022-08-24T04:23:45;9.90;;;5.85;;
63050;SDS011;49136;47.416;19.402;2022-08-24T04:26:11;9.95;;;5.20;;
63050;SDS011;49136;47.416;19.402;2022-08-24T04:28:37;10.57;;;6.57;;
63050;SDS011;49136;47.416;19.402;2022-08-24T04:31:03;12.50;;;5.85;;
63050;SDS011;49136;47.416;19.402;2022-08-24T04:33:30;10.45;;;5.63;;
63050;SDS011;49136;47.416;19.402;2022-08-24T04:35:56;10.00;;;5.22;;
63050;SDS011;49136;47.416;19.402;2022-08-24T04:38:22;8.35;;;4.55;;
63050;SDS011;49136;47.416;19.402;2022-08-24T04:40:48;10.27;;;5.00;;
63050;SDS011;49136;47.416;19.402;2022-08-24T04:43:14;8.70;;;4.68;;
63050;SDS011;49136;47.416;19.402;2022-08-24T04:45:41;6.75;;;4.13;;
63050;SDS011;49136;47.416;19.402;2022-08-24T04:48:09;12.98;;;5.03;;
63050;SDS011;49136;47.416;19.402;2022-08-24T04:50:35;8.93;;;5.65;;
63050;SDS011;49136;47.416;19.402;2022-08-24T04:53:03;8.88;;;4.97;;
63050;SDS011;49136;47.416;19.402;2022-08-24T04:55:29;7.93;;;4.85;;
63050;SDS011;49136;47.416;19.402;2022-08-24T04:57:54;8.25;;;4.65;;
63050;SDS011;49136;47.416;19.402;2022-08-24T05:00:20;8.85;;;4.70;;
63050;SDS011;49136;47.416;19.402;2022-08-24T05:02:45;8.15;;;4.43;;
63050;SDS011;49136;47.416;19.402;2022-08-24T05:05:11;9.50;;;4.90;;
63050;SDS011;49136;47.416;19.402;2022-08-24T05:07:36;11.57;;;4.55;;
63050;SDS011;49136;47.416;19.402;2022-08-24T05:10:02;7.95;;;4.82;;
63050;SDS011;49136;47.416;19.402;2022-08-24T05:12:29;8.77;;;4.80;;
63050;SDS011;49136;47.416;19.402;2022-08-24T05:14:56;8.52;;;4.22;;
63050;SDS011;49136;47.416;19.402;2022-08-24T05:17:23;10.55;;;4.15;;
63050;SDS011;49136;47.416;19.402;2022-08-24T05:19:49;14.05;;;4.57;;
63050;SDS011;49136;47.416;19.402;2022-08-24T05:22:14;7.65;;;4.32;;
63050;SDS011;49136;47.416;19.402;2022-08-24T05:24:40;11.25;;;5.00;;
63050;SDS011;49136;47.416;19.402;2022-08-24T05:27:05;10.52;;;4.90;;
63050;SDS011;49136;47.416;19.402;2022-08-24T05:29:31;7.25;;;4.50;;
63050;SDS011;49136;47.416;19.402;2022-08-24T05:31:58;7.00;;;3.97;;
63050;SDS011;49136;47.416;19.402;2022-08-24T05:34:24;7.55;;;4.97;;
63050;SDS011;49136;47.416;19.402;2022-08-24T05:36:50;8.32;;;4.90;;
63050;SDS011;49136;47.416;19.402;2022-08-24T05:39:16;7.65;;;4.22;;
63050;SDS011;49136;47.416;19.402;2022-08-24T05:41:42;6.63;;;3.55;;
63050;SDS011;49136;47.416;19.402;2022-08-24T05:44:09;7.38;;;3.55;;
63050;SDS011;49136;47.416;19.402;2022-08-24T05:46:35;10.43;;;4.85;;
63050;SDS011;49136;47.416;19.402;2022-08-24T05:49:02;6.40;;;3.83;;
63050;SDS011;49136;47.416;19.402;2022-08-24T05:51:28;6.63;;;4.53;;
63050;SDS011;49136;47.416;19.402;2022-08-24T05:53:54;8.95;;;3.90;;
63050;SDS011;49136;47.416;19.402;2022-08-24T05:56:20;7.97;;;3.78;;
63050;SDS011;49136;47.416;19.402;2022-08-24T05:58:46;9.10;;;4.38;;
63050;SDS011;49136;47.416;19.402;2022-08-24T06:01:16;7.43;;;3.58;;
63050;SDS011;49136;47.416;19.402;2022-08-24T06:03:41;5.10;;;3.10;;
63050;SDS011;49136;47.416;19.402;2022-08-24T06:06:07;7.95;;;3.70;;
63050;SDS011;49136;47.416;19.402;2022-08-24T06:08:34;8.90;;;3.53;;
63050;SDS011;49136;47.416;19.402;2022-08-24T06:11:00;7.40;;;3.03;;
63050;SDS011;49136;47.416;19.402;2022-08-24T06:13:27;7.22;;;3.63;;
63050;SDS011;49136;47.416;19.402;2022-08-24T06:18:28;9.10;;;3.47;;
63050;SDS011;49136;47.416;19.402;2022-08-24T06:20:53;5.85;;;3.33;;
63050;SDS011;49136;47.416;19.402;2022-08-24T06:23:19;7.07;;;3.45;;
63050;SDS011;49136;47.416;19.402;2022-08-24T06:25:44;8.05;;;3.78;;
63050;SDS011;49136;47.416;19.402;2022-08-24T06:31:04;6.95;;;3.70;;
63050;SDS011;49136;47.416;19.402;2022-08-24T06:33:31;6.88;;;3.83;;
63050;SDS011;49136;47.416;19.402;2022-08-24T06:35:57;4.97;;;3.35;;
63050;SDS011;49136;47.416;19.402;2022-08-24T06:38:22;7.00;;;3.58;;
63050;SDS011;49136;47.416;19.402;2022-08-24T06:40:47;8.27;;;3.75;;
63050;SDS011;49136;47.416;19.402;2022-08-24T06:43:13;5.35;;;3.63;;
63050;SDS011;49136;47.416;19.402;2022-08-24T06:45:42;6.18;;;3.60;;
63050;SDS011;49136;47.416;19.402;2022-08-24T06:48:09;6.22;;;2.97;;
63050;SDS011;49136;47.416;19.402;2022-08-24T06:50:34;3.75;;;2.33;;
63050;SDS011;49136;47.416;19.402;2022-08-24T06:53:00;4.80;;;2.45;;
63050;SDS011;49136;47.416;19.402;2022-08-24T06:55:26;7.75;;;3.28;;
63050;SDS011;49136;47.416;19.402;2022-08-24T06:57:52;8.82;;;3.95;;
63050;SDS011;49136;47.416;19.402;2022-08-24T07:00:18;4.53;;;2.78;;
63050;SDS011;49136;47.416;19.402;2022-08-24T07:02:44;4.20;;;2.63;;
63050;SDS011;49136;47.416;19.402;2022-08-24T07:05:10;3.10;;;2.20;;
63050;SDS011;49136;47.416;19.402;2022-08-24T07:07:35;9.55;;;2.38;;
63050;SDS011;49136;47.416;19.402;2022-08-24T07:10:01;3.00;;;1.70;;
63050;SDS011;49136;47.416;19.402;2022-08-24T07:12:26;4.95;;;2.60;;
63050;SDS011;49136;47.416;19.402;2022-08-24T07:14:52;5.18;;;2.75;;
63050;SDS011;49136;47.416;19.402;2022-08-24T07:17:17;3.08;;;2.28;;
63050;SDS011;49136;47.416;19.402;2022-08-24T07:19:43;3.40;;;2.22;;
63050;SDS011;49136;47.416;19.402;2022-08-24T07:22:10;3.55;;;2.33;;
63050;SDS011;49136;47.416;19.402;2022-08-24T07:24:36;5.93;;;2.40;;
63050;SDS011;49136;47.416;19.402;2022-08-24T07:27:01;5.65;;;2.45;;
63050;SDS011;49136;47.416;19.402;2022-08-24T07:29:27;5.88;;;2.05;;
63050;SDS011;49136;47.416;19.402;2022-08-24T07:31:52;3.60;;;2.63;;
63050;SDS011;49136;47.416;19.402;2022-08-24T07:34:18;7.22;;;3.30;;
63050;SDS011;49136;47.416;19.402;2022-08-24T07:36:43;6.25;;;2.80;;
63050;SDS011;49136;47.416;19.402;2022-08-24T07:39:09;5.45;;;2.90;;
63050;SDS011;49136;47.416;19.402;2022-08-24T07:41:38;4.78;;;2.50;;
63050;SDS011;49136;47.416;19.402;2022-08-24T07:44:06;5.68;;;3.45;;
63050;SDS011;49136;47.416;19.402;2022-08-24T07:46:32;5.10;;;2.58;;
63050;SDS011;49136;47.416;19.402;2022-08-24T07:48:58;5.25;;;3.03;;
63050;SDS011;49136;47.416;19.402;2022-08-24T07:51:23;6.05;;;2.53;;
63050;SDS011;49136;47.416;19.402;2022-08-24T07:53:49;3.60;;;2.70;;
63050;SDS011;49136;47.416;19.402;2022-08-24T07:56:14;8.35;;;3.00;;
63050;SDS011;49136;47.416;19.402;2022-08-24T07:58:40;5.43;;;2.92;;
63050;SDS011;49136;47.416;19.402;2022-08-24T08:01:05;6.03;;;3.10;;
63050;SDS011;49136;47.416;19.402;2022-08-24T08:03:33;4.72;;;2.88;;
63050;SDS011;49136;47.416;19.402;2022-08-24T08:06:00;7.00;;;3.53;;
63050;SDS011;49136;47.416;19.402;2022-08-24T08:10:58;4.18;;;2.53;;
63050;SDS011;49136;47.416;19.402;2022-08-24T08:13:23;5.38;;;2.50;;
63050;SDS011;49136;47.416;19.402;2022-08-24T08:15:48;5.30;;;3.00;;
63050;SDS011;49136;47.416;19.402;2022-08-24T08:18:14;6.43;;;2.47;;
63050;SDS011;49136;47.416;19.402;2022-08-24T08:20:43;7.78;;;3.15;;
63050;SDS011;49136;47.416;19.402;2022-08-24T08:23:08;5.13;;;3.17;;
63050;SDS011;49136;47.416;19.402;2022-08-24T08:25:53;8.68;;;2.97;;
63050;SDS011;49136;47.416;19.402;2022-08-24T08:28:21;11.77;;;3.85;;
63050;SDS011;49136;47.416;19.402;2022-08-24T08:30:47;7.63;;;3.95;;
63050;SDS011;49136;47.416;19.402;2022-08-24T08:33:12;5.97;;;3.58;;
63050;SDS011;49136;47.416;19.402;2022-08-24T08:35:38;6.60;;;3.70;;
63050;SDS011;49136;47.416;19.402;2022-08-24T08:38:06;6.90;;;4.20;;
63050;SDS011;49136;47.416;19.402;2022-08-24T08:43:04;9.30;;;3.83;;
63050;SDS011;49136;47.416;19.402;2022-08-24T08:48:12;6.93;;;3.67;;
63050;SDS011;49136;47.416;19.402;2022-08-24T08:51:04;8.48;;;4.35;;
63050;SDS011;49136;47.416;19.402;2022-08-24T08:53:53;5.85;;;3.90;;
63050;SDS011;49136;47.416;19.402;2022-08-24T08:56:46;10.38;;;4.30;;
63050;SDS011;49136;47.416;19.402;2022-08-24T08:59:59;16.35;;;5.00;;
63050;SDS011;49136;47.416;19.402;2022-08-24T09:02:42;12.27;;;4.25;;
63050;SDS011;49136;47.416;19.402;2022-08-24T09:16:10;6.78;;;3.92;;
63050;SDS011;49136;47.416;19.402;2022-08-24T09:35:05;10.32;;;4.50;;
63050;SDS011;49136;47.416;19.402;2022-08-24T09:37:43;11.88;;;5.05;;
63050;SDS011;49136;47.416;19.402;2022-08-24T10:01:06;10.05;;;4.68;;
63050;SDS011;49136;47.416;19.402;2022-08-24T10:14:49;9.90;;;4.88;;
63050;SDS011;49136;47.416;19.402;2022-08-24T10:31:35;12.97;;;4.93;;
63050;SDS011;49136;47.416;19.402;2022-08-24T10:49:08;14.73;;;5.00;;
63050;SDS011;49136;47.416;19.402;2022-08-24T10:54:42;11.38;;;5.05;;
63050;SDS011;49136;47.416;19.402;2022-08-24T10:57:17;9.80;;;4.65;;
63050;SDS011;49136;47.416;19.402;2022-08-24T11:02:29;7.88;;;4.40;;
63050;SDS011;49136;47.416;19.402;2022-08-24T11:04:58;7.07;;;3.95;;
63050;SDS011;49136;47.416;19.402;2022-08-24T11:07:25;9.93;;;4.68;;
63050;SDS011;49136;47.416;19.402;2022-08-24T11:09:55;15.80;;;4.97;;
63050;SDS011;49136;47.416;19.402;2022-08-24T11:15:09;8.27;;;4.18;;
63050;SDS011;49136;47.416;19.402;2022-08-24T11:17:42;9.15;;;4.47;;
63050;SDS011;49136;47.416;19.402;2022-08-24T11:20:31;13.93;;;5.30;;
63050;SDS011;49136;47.416;19.402;2022-08-24T11:23:04;12.05;;;4.88;;
63050;SDS011;49136;47.416;19.402;2022-08-24T11:25:34;13.35;;;5.00;;
63050;SDS011;49136;47.416;19.402;2022-08-24T11:28:06;13.98;;;5.03;;
63050;SDS011;49136;47.416;19.402;2022-08-24T11:30:52;16.77;;;5.70;;
63050;SDS011;49136;47.416;19.402;2022-08-24T11:33:23;8.35;;;4.78;;
63050;SDS011;49136;47.416;19.402;2022-08-24T11:35:52;13.20;;;5.28;;
63050;SDS011;49136;47.416;19.402;2022-08-24T11:38:22;9.05;;;4.47;;
63050;SDS011;49136;47.416;19.402;2022-08-24T11:41:09;10.65;;;4.68;;
63050;SDS011;49136;47.416;19.402;2022-08-24T11:59:49;19.65;;;6.10;;
63050;SDS011;49136;47.416;19.402;2022-08-24T12:02:22;16.23;;;5.65;;
63050;SDS011;49136;47.416;19.402;2022-08-24T12:16:02;11.02;;;5.72;;
63050;SDS011;49136;47.416;19.402;2022-08-24T12:21:31;9.70;;;4.90;;
63050;SDS011;49136;47.416;19.402;2022-08-24T12:24:02;7.93;;;4.72;;
63050;SDS011;49136;47.416;19.402;2022-08-24T12:29:36;9.80;;;5.05;;
63050;SDS011;49136;47.416;19.402;2022-08-24T12:32:09;8.93;;;5.05;;
63050;SDS011;49136;47.416;19.402;2022-08-24T12:35:00;9.15;;;4.70;;
63050;SDS011;49136;47.416;19.402;2022-08-24T12:37:33;8.65;;;5.28;;
63050;SDS011;49136;47.416;19.402;2022-08-24T12:45:04;6.40;;;4.30;;
63050;SDS011;49136;47.416;19.402;2022-08-24T12:55:45;9.70;;;4.30;;
63050;SDS011;49136;47.416;19.402;2022-08-24T12:58:26;6.15;;;3.72;;
63050;SDS011;49136;47.416;19.402;2022-08-24T13:01:06;15.05;;;4.93;;
63050;SDS011;49136;47.416;19.402;2022-08-24T13:03:36;6.82;;;4.35;;
63050;SDS011;49136;47.416;19.402;2022-08-24T13:06:06;10.50;;;5.35;;
63050;SDS011;49136;47.416;19.402;2022-08-24T13:11:07;7.68;;;4.32;;
63050;SDS011;49136;47.416;19.402;2022-08-24T13:13:44;9.82;;;4.32;;
63050;SDS011;49136;47.416;19.402;2022-08-24T13:16:42;9.48;;;4.57;;
63050;SDS011;49136;47.416;19.402;2022-08-24T13:29:36;8.73;;;4.75;;
63050;SDS011;49136;47.416;19.402;2022-08-24T13:32:04;7.90;;;4.43;;
63050;SDS011;49136;47.416;19.402;2022-08-24T13:37:15;5.65;;;4.13;;
63050;SDS011;49136;47.416;19.402;2022-08-24T13:47:33;6.85;;;4.43;;
63050;SDS011;49136;47.416;19.402;2022-08-24T14:13:00;6.43;;;3.78;;
63050;SDS011;49136;47.416;19.402;2022-08-24T14:18:02;6.45;;;4.15;;
63050;SDS011;49136;47.416;19.402;2022-08-24T14:20:41;9.93;;;4.10;;
63050;SDS011;49136;47.416;19.402;2022-08-24T14:23:38;6.63;;;4.07;;
63050;SDS011;49136;47.416;19.402;2022-08-24T14:31:39;9.73;;;4.40;;
63050;SDS011;49136;47.416;19.402;2022-08-24T14:39:24;5.57;;;3.42;;
63050;SDS011;49136;47.416;19.402;2022-08-24T14:44:44;5.43;;;3.60;;
63050;SDS011;49136;47.416;19.402;2022-08-24T14:50:21;5.32;;;3.78;;
63050;SDS011;49136;47.416;19.402;2022-08-24T14:56:06;9.23;;;4.20;;
63050;SDS011;49136;47.416;19.402;2022-08-24T15:04:47;5.80;;;3.33;;
63050;SDS011;49136;47.416;19.402;2022-08-24T15:06:58;8.48;;;3.65;;
63050;SDS011;49136;47.416;19.402;2022-08-24T15:09:46;6.20;;;3.75;;
63050;SDS011;49136;47.416;19.402;2022-08-24T15:12:24;7.07;;;3.55;;
63050;SDS011;49136;47.416;19.402;2022-08-24T15:14:57;9.52;;;4.03;;
63050;SDS011;49136;47.416;19.402;2022-08-24T15:17:38;7.32;;;3.97;;
63050;SDS011;49136;47.416;19.402;2022-08-24T15:20:20;7.80;;;3.83;;
63050;SDS011;49136;47.416;19.402;2022-08-24T15:23:10;10.00;;;4.07;;
63050;SDS011;49136;47.416;19.402;2022-08-24T15:25:44;7.95;;;4.03;;
63050;SDS011;49136;47.416;19.402;2022-08-24T15:31:02;9.38;;;4.57;;
63050;SDS011;49136;47.416;19.402;2022-08-24T15:33:31;6.03;;;4.20;;
63050;SDS011;49136;47.416;19.402;2022-08-24T15:38:38;8.18;;;4.13;;
63050;SDS011;49136;47.416;19.402;2022-08-24T15:46:10;10.68;;;3.70;;
63050;SDS011;49136;47.416;19.402;2022-08-24T15:48:36;4.53;;;3.30;;
63050;SDS011;49136;47.416;19.402;2022-08-24T15:51:05;7.43;;;3.80;;
63050;SDS011;49136;47.416;19.402;2022-08-24T15:53:38;7.50;;;4.43;;
63050;SDS011;49136;47.416;19.402;2022-08-24T15:56:28;6.05;;;3.38;;
63050;SDS011;49136;47.416;19.402;2022-08-24T15:59:07;6.72;;;4.70;;
63050;SDS011;49136;47.416;19.402;2022-08-24T16:01:35;7.40;;;4.03;;
63050;SDS011;49136;47.416;19.402;2022-08-24T16:04:36;6.30;;;4.07;;
63050;SDS011;49136;47.416;19.402;2022-08-24T16:07:05;6.32;;;3.58;;
63050;SDS011;49136;47.416;19.402;2022-08-24T16:09:33;8.77;;;4.60;;
63050;SDS011;49136;47.416;19.402;2022-08-24T16:12:20;5.25;;;3.70;;
63050;SDS011;49136;47.416;19.402;2022-08-24T16:14:47;5.90;;;4.20;;
63050;SDS011;49136;47.416;19.402;2022-08-24T16:17:28;14.07;;;4.32;;
63050;SDS011;49136;47.416;19.402;2022-08-24T16:19:59;11.80;;;4.57;;
63050;SDS011;49136;47.416;19.402;2022-08-24T16:22:31;9.02;;;5.15;;
63050;SDS011;49136;47.416;19.402;2022-08-24T16:25:34;11.13;;;4.97;;
63050;SDS011;49136;47.416;19.402;2022-08-24T16:36:00;11.18;;;4.65;;
63050;SDS011;49136;47.416;19.402;2022-08-24T16:38:28;7.50;;;3.75;;
63050;SDS011;49136;47.416;19.402;2022-08-24T16:40:59;8.80;;;3.55;;
63050;SDS011;49136;47.416;19.402;2022-08-24T16:43:26;15.45;;;4.03;;
63050;SDS011;49136;47.416;19.402;2022-08-24T16:45:53;9.25;;;4.55;;
63050;SDS011;49136;47.416;19.402;2022-08-24T16:48:18;8.48;;;5.13;;
63050;SDS011;49136;47.416;19.402;2022-08-24T16:50:44;10.57;;;4.65;;
63050;SDS011;49136;47.416;19.402;2022-08-24T16:53:10;8.10;;;4.93;;
63050;SDS011;49136;47.416;19.402;2022-08-24T16:55:35;14.93;;;5.53;;
63050;SDS011;49136;47.416;19.402;2022-08-24T16:58:01;10.57;;;5.00;;
63050;SDS011;49136;47.416;19.402;2022-08-24T17:00:27;9.60;;;5.15;;
63050;SDS011;49136;47.416;19.402;2022-08-24T17:02:53;9.85;;;5.18;;
63050;SDS011;49136;47.416;19.402;2022-08-24T17:05:19;7.25;;;4.50;;
63050;SDS011;49136;47.416;19.402;2022-08-24T17:07:45;6.32;;;3.75;;
63050;SDS011;49136;47.416;19.402;2022-08-24T17:10:12;9.95;;;4.18;;
63050;SDS011;49136;47.416;19.402;2022-08-24T17:12:39;9.07;;;4.85;;
63050;SDS011;49136;47.416;19.402;2022-08-24T17:15:06;15.40;;;5.03;;
63050;SDS011;49136;47.416;19.402;2022-08-24T17:17:36;6.80;;;3.97;;
63050;SDS011;49136;47.416;19.402;2022-08-24T17:20:03;11.60;;;5.07;;
63050;SDS011;49136;47.416;19.402;2022-08-24T17:22:32;12.13;;;4.13;;
63050;SDS011;49136;47.416;19.402;2022-08-24T17:24:57;10.13;;;4.35;;
63050;SDS011;49136;47.416;19.402;2022-08-24T17:27:25;10.10;;;4.88;;
63050;SDS011;49136;47.416;19.402;2022-08-24T17:29:55;12.23;;;4.22;;
63050;SDS011;49136;47.416;19.402;2022-08-24T17:32:21;9.20;;;4.95;;
63050;SDS011;49136;47.416;19.402;2022-08-24T17:34:47;9.35;;;4.05;;
63050;SDS011;49136;47.416;19.402;2022-08-24T17:37:12;11.13;;;4.75;;
63050;SDS011;49136;47.416;19.402;2022-08-24T17:39:38;8.25;;;4.55;;
63050;SDS011;49136;47.416;19.402;2022-08-24T17:42:03;9.18;;;3.65;;
63050;SDS011;49136;47.416;19.402;2022-08-24T17:44:29;16.50;;;4.63;;
63050;SDS011;49136;47.416;19.402;2022-08-24T17:46:58;14.27;;;4.80;;
63050;SDS011;49136;47.416;19.402;2022-08-24T17:49:27;7.68;;;5.07;;
63050;SDS011;49136;47.416;19.402;2022-08-24T17:51:55;16.13;;;5.00;;
63050;SDS011;49136;47.416;19.402;2022-08-24T17:54:20;11.07;;;4.25;;
63050;SDS011;49136;47.416;19.402;2022-08-24T17:56:47;10.13;;;4.25;;
63050;SDS011;49136;47.416;19.402;2022-08-24T17:59:15;7.47;;;4.43;;
63050;SDS011;49136;47.416;19.402;2022-08-24T18:04:15;10.23;;;4.65;;
63050;SDS011;49136;47.416;19.402;2022-08-24T18:06:41;10.77;;;4.30;;
63050;SDS011;49136;47.416;19.402;2022-08-24T18:09:13;8.38;;;3.90;;
63050;SDS011;49136;47.416;19.402;2022-08-24T18:11:45;7.15;;;4.22;;
63050;SDS011;49136;47.416;19.402;2022-08-24T18:14:11;13.35;;;4.18;;
63050;SDS011;49136;47.416;19.402;2022-08-24T18:16:36;10.38;;;4.40;;
63050;SDS011;49136;47.416;19.402;2022-08-24T18:19:02;10.27;;;3.72;;
63050;SDS011;49136;47.416;19.402;2022-08-24T18:21:27;11.15;;;4.32;;
63050;SDS011;49136;47.416;19.402;2022-08-24T18:23:53;11.73;;;3.80;;
63050;SDS011;49136;47.416;19.402;2022-08-24T18:26:20;9.18;;;4.00;;
63050;SDS011;49136;47.416;19.402;2022-08-24T18:28:48;10.60;;;4.50;;
63050;SDS011;49136;47.416;19.402;2022-08-24T18:31:14;11.10;;;5.43;;
63050;SDS011;49136;47.416;19.402;2022-08-24T18:33:40;15.27;;;5.00;;
63050;SDS011;49136;47.416;19.402;2022-08-24T18:36:05;11.45;;;4.70;;
63050;SDS011;49136;47.416;19.402;2022-08-24T18:38:31;19.08;;;5.47;;
63050;SDS011;49136;47.416;19.402;2022-08-24T18:40:58;13.20;;;4.68;;
63050;SDS011;49136;47.416;19.402;2022-08-24T18:43:25;12.98;;;5.20;;
63050;SDS011;49136;47.416;19.402;2022-08-24T18:45:51;12.25;;;5.45;;
63050;SDS011;49136;47.416;19.402;2022-08-24T18:48:17;7.70;;;5.18;;
63050;SDS011;49136;47.416;19.402;2022-08-24T18:50:43;19.65;;;5.07;;
63050;SDS011;49136;47.416;19.402;2022-08-24T18:53:08;12.95;;;5.75;;
63050;SDS011;49136;47.416;19.402;2022-08-24T18:55:37;12.90;;;5.03;;
63050;SDS011;49136;47.416;19.402;2022-08-24T18:58:03;11.88;;;5.25;;
63050;SDS011;49136;47.416;19.402;2022-08-24T19:00:29;10.93;;;5.13;;
63050;SDS011;49136;47.416;19.402;2022-08-24T19:02:55;18.83;;;5.35;;